This is the latest recevied weather packets stored in our database for station/object N9BSW. If no packets are shown the sender has not sent any weather packets the latest 10 day(s).
| Time | Temp. | Humidity | Pressure | Rain* | Wind** | Luminosity | Snow |
|---|---|---|---|---|---|---|---|
| 1777904345 | 19.44° C | 60% | 1007.9 hPa | 0 mm | - | 374 W/m² | - |
| 1777904042 | 18.89° C | 62% | 1008 hPa | 0 mm | - | 462 W/m² | - |
| 1777903738 | 18.33° C | 62% | 1008.1 hPa | 0 mm | - | 462 W/m² | - |
| 1777903434 | 18.33° C | 63% | 1008.2 hPa | 0 mm | - | 440 W/m² | - |
| 1777903131 | 17.78° C | 64% | 1008 hPa | 0 mm | - | 384 W/m² | - |
| 1777902827 | 17.22° C | 65% | 1008.2 hPa | 0 mm | - | 322 W/m² | - |
| 1777902525 | 17.22° C | 66% | 1008.1 hPa | 0 mm | - | 214 W/m² | - |
| 1777902222 | 16.67° C | 66% | 1008.3 hPa | 0 mm | - | 224 W/m² | - |
| 1777901920 | 16.67° C | 67% | 1008.4 hPa | 0 mm | - | 192 W/m² | - |
| 1777901618 | 16.67° C | 66% | 1008.4 hPa | 0 mm | - | 202 W/m² | - |
| 1777901315 | 16.67° C | 66% | 1008.4 hPa | 0 mm | - | 181 W/m² | - |
| 1777901012 | 16.67° C | 66% | 1008.4 hPa | 0 mm | - | 186 W/m² | - |
| 1777900709 | 17.22° C | 64% | 1008.3 hPa | 0 mm | - | 173 W/m² | - |
| 1777900406 | 17.22° C | 65% | 1008.3 hPa | 0 mm | - | 247 W/m² | - |
| 1777900103 | 17.22° C | 64% | 1008.1 hPa | 0 mm | - | 349 W/m² | - |
| 1777899800 | 16.67° C | 66% | 1008.2 hPa | 0 mm | - | 201 W/m² | - |
| 1777899497 | 16.11° C | 66% | 1008.1 hPa | 0 mm | - | 170 W/m² | - |
| 1777899194 | 16.11° C | 67% | 1008 hPa | 0 mm | - | 144 W/m² | - |
| 1777898892 | 15° C | 70% | 1008.1 hPa | 0 mm | - | 134 W/m² | - |
| 1777898589 | 14.44° C | 72% | 1008.1 hPa | 0 mm | - | 132 W/m² | - |
| 1777898286 | 14.44° C | 71% | 1008.1 hPa | 0 mm | - | 98 W/m² | - |
| 1777897983 | 13.89° C | 71% | 1008.1 hPa | 0 mm | - | 88 W/m² | - |
| 1777897679 | 13.89° C | 71% | 1008.1 hPa | 0 mm | - | 100 W/m² | - |
| 1777897375 | 13.89° C | 71% | 1008 hPa | 0 mm | - | 116 W/m² | - |
| 1777897071 | 13.33° C | 74% | 1008.1 hPa | 0 mm | - | 146 W/m² | - |
* Rain latest hour (hover to see other rain measurements)
** Current wind speed in m/s (hover to see current wind gust speed)